createdAt,value
2022-12-17T00:01:27.861Z,-1.90
2022-12-17T00:06:48.089Z,-1.90
2022-12-17T00:12:09.780Z,-1.90
2022-12-17T00:17:30.150Z,-1.90
2022-12-17T00:22:50.586Z,-1.90
2022-12-17T00:28:10.985Z,-1.90
2022-12-17T00:33:31.854Z,-1.90
2022-12-17T00:38:51.993Z,-1.90
2022-12-17T00:44:12.356Z,-1.80
2022-12-17T00:49:32.851Z,-1.80
2022-12-17T00:54:53.473Z,-1.80
2022-12-17T01:00:17.074Z,-1.80
2022-12-17T01:05:37.278Z,-1.80
2022-12-17T01:10:57.399Z,-1.90
2022-12-17T01:16:29.867Z,-1.90
2022-12-17T01:21:50.303Z,-2.00
2022-12-17T01:27:10.423Z,-2.00
2022-12-17T01:32:30.496Z,-2.00
2022-12-17T01:37:50.930Z,-1.90
2022-12-17T01:43:11.251Z,-1.90
2022-12-17T01:48:35.738Z,-1.80
2022-12-17T01:54:01.519Z,-1.80
2022-12-17T01:59:24.355Z,-1.80
2022-12-17T02:04:45.205Z,-1.90
2022-12-17T02:10:42.472Z,-1.80
2022-12-17T02:16:11.482Z,-1.80
2022-12-17T02:21:31.894Z,-1.80
2022-12-17T02:27:05.730Z,-1.70
2022-12-17T02:32:27.898Z,-1.70
2022-12-17T02:37:48.057Z,-1.70
2022-12-17T02:43:08.881Z,-1.60
2022-12-17T02:48:30.867Z,-1.60
2022-12-17T02:53:52.740Z,-1.70
2022-12-17T02:59:13.098Z,-1.80
2022-12-17T03:04:33.700Z,-1.90
2022-12-17T03:09:54.099Z,-1.80
2022-12-17T03:15:14.375Z,-1.80
2022-12-17T03:20:34.571Z,-1.80
2022-12-17T03:25:54.799Z,-1.90
2022-12-17T03:31:18.824Z,-2.00
2022-12-17T03:36:39.223Z,-2.10
2022-12-17T03:41:59.535Z,-2.10
2022-12-17T03:47:20.289Z,-2.20
2022-12-17T03:52:40.486Z,-2.20
2022-12-17T03:58:00.603Z,-2.30
2022-12-17T04:03:21.059Z,-2.40
2022-12-17T04:08:55.534Z,-2.50
2022-12-17T04:14:15.632Z,-2.60
2022-12-17T04:19:35.844Z,-2.70
2022-12-17T04:24:56.080Z,-2.70
2022-12-17T04:30:16.271Z,-2.80
2022-12-17T04:35:36.528Z,-2.80
2022-12-17T04:40:56.688Z,-2.70
2022-12-17T04:46:18.150Z,-2.40
2022-12-17T04:51:38.467Z,-2.30
2022-12-17T04:56:58.679Z,-2.20
2022-12-17T05:02:19.071Z,-2.10
2022-12-17T05:07:39.248Z,-2.10
2022-12-17T05:12:59.160Z,-2.20
2022-12-17T05:18:24.730Z,-2.30
2022-12-17T05:23:45.084Z,-2.30
2022-12-17T05:29:08.054Z,-2.10
2022-12-17T05:34:30.589Z,-1.90
2022-12-17T05:39:50.643Z,-1.80
2022-12-17T05:45:10.789Z,-1.70
2022-12-17T05:50:31.147Z,-1.60
2022-12-17T05:55:59.218Z,-1.50
2022-12-17T06:01:21.862Z,-1.50
2022-12-17T06:06:42.113Z,-1.60
2022-12-17T06:12:03.122Z,-1.60
2022-12-17T06:17:23.266Z,-1.60
2022-12-17T06:22:43.356Z,-1.70
2022-12-17T06:28:03.756Z,-1.50
2022-12-17T06:33:29.175Z,-1.40
2022-12-17T06:38:49.407Z,-1.40
2022-12-17T06:44:09.500Z,-1.40
2022-12-17T06:49:29.761Z,-1.40
2022-12-17T06:54:49.809Z,-1.60
2022-12-17T07:00:09.936Z,-1.60
2022-12-17T07:05:30.930Z,-1.40
2022-12-17T07:10:51.394Z,-1.40
2022-12-17T07:16:13.448Z,-1.30
2022-12-17T07:21:33.441Z,-1.20
2022-12-17T07:26:53.508Z,-1.20
2022-12-17T07:32:13.960Z,-1.30
2022-12-17T07:37:34.056Z,-1.40
2022-12-17T07:42:54.147Z,-1.30
2022-12-17T07:48:14.642Z,-1.20
2022-12-17T07:53:35.233Z,-1.10
2022-12-17T07:58:55.501Z,-1.20
2022-12-17T08:04:15.952Z,-1.20
2022-12-17T08:09:36.202Z,-1.30
2022-12-17T08:14:56.339Z,-1.30
2022-12-17T08:20:16.491Z,-1.20
2022-12-17T08:25:36.589Z,-1.20
2022-12-17T08:30:56.865Z,-1.20
2022-12-17T08:36:17.324Z,-1.60
2022-12-17T08:41:37.294Z,-1.40
2022-12-17T08:46:57.490Z,-1.40
2022-12-17T08:52:18.763Z,-1.30
2022-12-17T08:57:39.464Z,-1.60
2022-12-17T09:02:59.642Z,-1.50
2022-12-17T09:08:24.776Z,-1.20
2022-12-17T09:13:45.166Z,-1.00
2022-12-17T09:19:05.667Z,-0.80
2022-12-17T09:24:26.299Z,-0.50
2022-12-17T09:29:46.589Z,-0.30
2022-12-17T09:35:06.771Z,-0.40
2022-12-17T09:40:35.097Z,-0.40
2022-12-17T09:46:14.179Z,-0.20
2022-12-17T09:51:43.606Z,-0.20
2022-12-17T09:57:03.930Z,-0.10
2022-12-17T10:02:46.904Z,-0.10
2022-12-17T10:08:08.985Z,-0.10
2022-12-17T10:13:42.416Z,0.10
2022-12-17T10:19:03.392Z,-0.30
2022-12-17T10:24:28.992Z,-0.10
2022-12-17T10:29:50.648Z,-0.20
2022-12-17T10:35:11.843Z,-0.40
2022-12-17T10:40:52.252Z,0.00
2022-12-17T10:46:16.130Z,-0.30
2022-12-17T10:51:46.075Z,-0.50
2022-12-17T10:57:12.006Z,-0.90
2022-12-17T11:02:39.407Z,-0.70
2022-12-17T11:08:02.541Z,-0.90
2022-12-17T11:13:28.303Z,-1.10
2022-12-17T11:18:58.782Z,-1.20
2022-12-17T11:24:22.997Z,-1.10
2022-12-17T11:29:43.437Z,-0.80
2022-12-17T11:35:32.627Z,-0.80
2022-12-17T11:40:59.528Z,-0.40
2022-12-17T11:46:36.109Z,-0.60
2022-12-17T11:52:21.032Z,-0.70
2022-12-17T11:58:01.092Z,-0.80
2022-12-17T12:03:53.550Z,-0.80
2022-12-17T12:09:26.063Z,-0.60
2022-12-17T12:15:12.209Z,-1.00
2022-12-17T12:20:51.380Z,-0.80
2022-12-17T12:26:40.549Z,-1.00
2022-12-17T12:32:38.301Z,-1.20
2022-12-17T12:37:58.947Z,-1.40
2022-12-17T12:43:36.354Z,-1.60
2022-12-17T12:49:08.929Z,-1.30
2022-12-17T12:54:45.236Z,-1.20
2022-12-17T13:00:08.075Z,-1.40
2022-12-17T13:05:34.737Z,-1.10
2022-12-17T13:10:37.626Z,-1.40
2022-12-17T13:15:43.890Z,-1.60
2022-12-17T13:20:58.149Z,-1.40
2022-12-17T13:26:20.764Z,-1.50
2022-12-17T13:31:44.104Z,-1.30
2022-12-17T13:37:09.250Z,-1.40
2022-12-17T13:42:32.437Z,-1.20
2022-12-17T13:47:35.818Z,-1.00
2022-12-17T13:52:37.504Z,-1.20
2022-12-17T13:57:46.133Z,-1.10
2022-12-17T14:02:48.904Z,-0.90
2022-12-17T14:07:52.239Z,-0.80
2022-12-17T14:13:04.724Z,-0.80
2022-12-17T14:18:10.849Z,-0.80
2022-12-17T14:23:28.795Z,-1.00
2022-12-17T14:28:33.949Z,-1.20
2022-12-17T14:33:37.723Z,-1.10
2022-12-17T14:38:40.701Z,-1.00
2022-12-17T14:43:44.638Z,-1.00
2022-12-17T14:49:02.243Z,-1.10
2022-12-17T14:54:06.974Z,-1.40
2022-12-17T14:59:31.159Z,-1.30
2022-12-17T15:04:33.580Z,-1.30
2022-12-17T15:09:38.977Z,-1.30
2022-12-17T15:14:40.653Z,-1.30
2022-12-17T15:19:42.615Z,-1.30
2022-12-17T15:24:45.405Z,-1.10
2022-12-17T15:29:47.413Z,-1.10
2022-12-17T15:34:50.462Z,-1.20
2022-12-17T15:39:52.273Z,-1.10
2022-12-17T15:44:53.997Z,-1.10
2022-12-17T15:49:55.687Z,-1.00
2022-12-17T15:54:57.999Z,-0.90
2022-12-17T15:59:59.693Z,-0.80
2022-12-17T16:05:01.425Z,-0.80
2022-12-17T16:10:05.559Z,-0.70
2022-12-17T16:15:08.883Z,-0.70
2022-12-17T16:20:11.116Z,-0.70
2022-12-17T16:25:12.812Z,-0.80
2022-12-17T16:30:14.610Z,-0.80
2022-12-17T16:35:16.447Z,-0.80
2022-12-17T16:40:18.094Z,-1.00
2022-12-17T16:45:19.789Z,-1.00
2022-12-17T16:50:21.628Z,-1.00
2022-12-17T16:55:23.324Z,-1.00
2022-12-17T17:00:25.018Z,-1.10
2022-12-17T17:05:26.781Z,-1.10
2022-12-17T17:10:30.013Z,-1.10
2022-12-17T17:15:32.473Z,-1.20
2022-12-17T17:20:34.257Z,-1.20
2022-12-17T17:25:57.829Z,-1.20
2022-12-17T17:31:06.374Z,-1.40
2022-12-17T17:36:10.728Z,-1.50
2022-12-17T17:41:14.944Z,-1.60
2022-12-17T17:46:18.749Z,-1.70
2022-12-17T17:51:51.957Z,-1.70
2022-12-17T17:56:47.277Z,-1.80
2022-12-17T18:01:51.692Z,-1.70
2022-12-17T18:07:23.736Z,-1.70
2022-12-17T18:12:33.641Z,-1.70
2022-12-17T18:17:35.330Z,-2.00
2022-12-17T18:22:37.603Z,-2.10
2022-12-17T18:27:39.649Z,-2.00
2022-12-17T18:32:41.433Z,-2.00
2022-12-17T18:37:43.128Z,-2.00
2022-12-17T18:43:03.372Z,-2.10
2022-12-17T18:48:05.712Z,-2.10
2022-12-17T18:53:07.384Z,-2.00
2022-12-17T18:58:09.145Z,-2.20
2022-12-17T19:03:10.912Z,-2.00
2022-12-17T19:08:12.610Z,-2.00
2022-12-17T19:13:14.300Z,-2.20
2022-12-17T19:18:16.285Z,-2.20
2022-12-17T19:23:18.016Z,-2.30
2022-12-17T19:28:20.899Z,-2.60
2022-12-17T19:33:22.766Z,-2.60
2022-12-17T19:38:24.479Z,-2.70
2022-12-17T19:43:26.141Z,-2.80
2022-12-17T19:48:27.803Z,-2.80
2022-12-17T19:53:30.275Z,-2.60
2022-12-17T19:58:31.921Z,-2.80
2022-12-17T20:03:34.578Z,-2.90
2022-12-17T20:08:36.938Z,-3.00
2022-12-17T20:13:38.932Z,-3.00
2022-12-17T20:18:41.605Z,-3.00
2022-12-17T20:23:46.899Z,-3.00
2022-12-17T20:28:48.581Z,-3.00
2022-12-17T20:33:50.279Z,-3.10
2022-12-17T20:38:52.067Z,-3.20
2022-12-17T20:43:54.235Z,-3.10
2022-12-17T20:48:55.912Z,-3.30
2022-12-17T20:54:00.252Z,-3.60
2022-12-17T20:59:05.719Z,-3.60
2022-12-17T21:04:07.594Z,-3.70
2022-12-17T21:09:09.466Z,-3.60
2022-12-17T21:14:14.365Z,-3.60
2022-12-17T21:19:18.202Z,-3.50
2022-12-17T21:24:20.069Z,-3.50
2022-12-17T21:29:21.767Z,-3.40
2022-12-17T21:34:25.343Z,-3.40
2022-12-17T21:39:27.616Z,-3.60
2022-12-17T21:44:29.396Z,-3.80
2022-12-17T21:49:31.470Z,-3.90
2022-12-17T21:54:34.343Z,-4.00
2022-12-17T21:59:36.007Z,-4.10
2022-12-17T22:04:42.327Z,-4.20
2022-12-17T22:09:51.610Z,-4.30
2022-12-17T22:15:07.114Z,-4.40
2022-12-17T22:20:10.537Z,-4.40
2022-12-17T22:25:13.068Z,-4.50
2022-12-17T22:30:35.957Z,-4.60
2022-12-17T22:36:40.485Z,-4.70
2022-12-17T22:44:30.054Z,-4.90
2022-12-17T22:46:27.423Z,-4.90
2022-12-17T22:51:36.968Z,-4.90
2022-12-17T22:57:34.966Z,-5.00
2022-12-17T23:02:05.304Z,-5.00
2022-12-17T23:07:07.051Z,-5.00
2022-12-17T23:12:27.629Z,-5.00
2022-12-17T23:17:29.315Z,-5.10
2022-12-17T23:22:31.009Z,-5.10
2022-12-17T23:27:33.028Z,-5.30
2022-12-17T23:32:36.393Z,-5.30
2022-12-17T23:37:40.136Z,-5.50
2022-12-17T23:42:42.225Z,-5.50
2022-12-17T23:47:43.885Z,-5.50
2022-12-17T23:52:45.572Z,-5.50
2022-12-17T23:57:47.759Z,-5.50
